Time;durP1;ratioP1;P1;durP2;ratioP2;P2;SDS_P1;SDS_P2;PMS_P1;PMS_P2;Temp;Humidity;BMP_temperature;BMP_pressure;BME280_temperature;BME280_humidity;BME280_pressure;Samples;Min_cycle;Max_cycle;Signal;HPM_P1;HPM_P2
2023/03/04 00:04:47;;;;;;;13.15;9.57;;;;;;;4.18;61.59;100919.72;10420052;28;20567;-70
2023/03/04 00:09:48;;;;;;;15.13;10.73;;;;;;;4.15;61.47;100920.72;10430851;28;20124;-71
2023/03/04 00:14:50;;;;;;;13.13;10.52;;;;;;;4.04;62.06;100921.19;10411549;28;20051;-70
2023/03/04 00:19:51;;;;;;;13.13;9.75;;;;;;;4.07;61.26;100915.78;10420123;28;20087;-68
2023/03/04 00:24:52;;;;;;;15.02;11.20;;;;;;;4.06;62.03;100923.75;10420279;28;20053;-69
2023/03/04 00:29:55;;;;;;;16.85;10.50;;;;;;;4.02;62.42;100927.41;10417661;28;20485;-69
2023/03/04 00:34:56;;;;;;;15.68;10.95;;;;;;;4.01;61.56;100920.47;10403835;28;20067;-69
2023/03/04 00:39:58;;;;;;;12.77;10.02;;;;;;;4.10;60.94;100927.97;10419698;28;20052;-69
2023/03/04 00:44:59;;;;;;;14.32;10.40;;;;;;;4.03;61.93;100929.16;10415007;28;20522;-69
2023/03/04 00:50:01;;;;;;;13.98;10.48;;;;;;;4.01;62.05;100920.47;10419092;28;20055;-71
2023/03/04 00:55:03;;;;;;;16.92;11.40;;;;;;;3.96;62.23;100917.16;10415839;28;20064;-69
2023/03/04 01:00:05;;;;;;;14.18;10.95;;;;;;;3.98;62.13;100912.66;10415974;28;21577;-71
2023/03/04 01:05:07;;;;;;;14.48;11.48;;;;;;;4.01;62.34;100913.41;10417229;28;20041;-70
2023/03/04 01:10:11;;;;;;;15.98;12.50;;;;;;;4.07;62.16;100909.66;10412472;28;20128;-70
2023/03/04 01:15:13;;;;;;;17.77;12.23;;;;;;;4.12;61.85;100912.94;10418558;28;20063;-69
2023/03/04 01:20:14;;;;;;;19.80;14.85;;;;;;;4.21;61.07;100907.25;10420741;28;20048;-71
2023/03/04 01:25:16;;;;;;;20.60;15.48;;;;;;;4.27;61.25;100900.88;10418599;28;20091;-68
2023/03/04 01:30:17;;;;;;;21.00;14.70;;;;;;;4.29;60.84;100883.19;10421637;28;20522;-70
2023/03/04 01:35:18;;;;;;;22.42;14.98;;;;;;;4.22;61.02;100882.63;10428922;28;20151;-68
2023/03/04 01:40:20;;;;;;;22.67;15.60;;;;;;;4.24;61.08;100885.19;10401784;28;20076;-69
2023/03/04 01:45:22;;;;;;;19.38;14.30;;;;;;;4.30;61.09;100874.38;10422095;28;20182;-68
2023/03/04 01:50:33;;;;;;;21.27;15.90;;;;;;;4.39;60.61;100855.50;10420537;28;20067;-69
2023/03/04 01:55:35;;;;;;;21.98;16.15;;;;;;;4.45;59.86;100843.84;10409302;28;20052;-70
2023/03/04 02:00:37;;;;;;;23.35;16.92;;;;;;;4.45;60.05;100857.03;10440589;28;20575;-69
2023/03/04 02:05:44;;;;;;;23.52;16.83;;;;;;;4.17;60.32;100845.06;10408970;28;20598;-69
2023/03/04 02:10:47;;;;;;;24.35;17.20;;;;;;;4.21;61.04;100849.28;10417172;28;20048;-70
2023/03/04 02:15:48;;;;;;;25.73;18.10;;;;;;;4.21;60.65;100838.75;10413779;28;21166;-70
2023/03/04 02:21:12;;;;;;;24.50;15.48;;;;;;;4.32;60.30;100840.91;10416952;28;20265;-68
2023/03/04 02:26:18;;;;;;;21.27;16.10;;;;;;;4.32;60.12;100837.41;10433105;28;20542;-70
2023/03/04 02:31:29;;;;;;;23.33;17.67;;;;;;;4.27;60.21;100831.50;10440389;28;20050;-68
2023/03/04 02:36:32;;;;;;;24.45;17.42;;;;;;;4.35;59.95;100835.47;10469392;23;20064;-67
2023/03/04 02:41:33;;;;;;;23.08;16.80;;;;;;;4.37;59.68;100832.81;10422775;28;20075;-69
2023/03/04 02:46:35;;;;;;;26.65;19.00;;;;;;;4.33;59.81;100821.53;10435123;28;20053;-67
2023/03/04 02:51:37;;;;;;;20.58;16.85;;;;;;;4.30;59.91;100826.09;10430657;23;20536;-68
2023/03/04 02:56:44;;;;;;;22.88;17.02;;;;;;;4.31;60.16;100822.50;10412767;28;20056;-71
2023/03/04 03:01:45;;;;;;;20.38;16.58;;;;;;;4.30;59.99;100826.09;10441467;28;20049;-73
2023/03/04 03:06:47;;;;;;;21.98;16.42;;;;;;;4.27;59.87;100816.53;10426433;28;20063;-73
2023/03/04 03:11:49;;;;;;;22.50;17.10;;;;;;;4.27;60.00;100813.06;10440363;28;20789;-74
2023/03/04 03:16:50;;;;;;;20.98;15.90;;;;;;;4.24;59.92;100804.34;10441540;28;20059;-73
2023/03/04 03:21:51;;;;;;;22.42;16.35;;;;;;;4.22;59.89;100793.03;10445082;28;20052;-73
2023/03/04 03:26:53;;;;;;;22.17;16.00;;;;;;;4.16;60.31;100822.31;10446799;28;20125;-72
2023/03/04 03:31:55;;;;;;;22.83;16.75;;;;;;;4.15;60.38;100794.22;10467714;28;20048;-71
2023/03/04 03:36:57;;;;;;;22.42;16.20;;;;;;;4.40;60.17;100812.41;10424850;28;20044;-73
2023/03/04 03:41:58;;;;;;;21.52;16.35;;;;;;;4.22;59.69;100756.13;10438816;28;20037;-72
2023/03/04 03:47:00;;;;;;;22.30;15.70;;;;;;;4.63;59.46;100809.66;10439398;28;20055;-74
2023/03/04 03:52:02;;;;;;;23.05;16.67;;;;;;;4.57;59.32;100789.69;10437274;28;20059;-70
2023/03/04 03:57:03;;;;;;;21.17;16.60;;;;;;;4.71;59.42;100808.34;10439172;28;20572;-71
2023/03/04 04:02:04;;;;;;;20.92;16.20;;;;;;;4.78;59.35;100804.50;10421746;28;20054;-71
2023/03/04 04:07:06;;;;;;;20.48;16.00;;;;;;;4.58;59.67;100799.31;10410820;28;20060;-74
2023/03/04 04:12:08;;;;;;;21.95;15.95;;;;;;;4.56;60.09;100786.22;10431680;28;20067;-72
2023/03/04 04:17:10;;;;;;;18.65;14.70;;;;;;;4.78;59.69;100804.50;10433340;28;20060;-73
2023/03/04 04:22:15;;;;;;;23.20;15.32;;;;;;;4.60;60.02;100774.56;10440354;28;20089;-72
2023/03/04 04:27:16;;;;;;;22.23;15.52;;;;;;;4.78;59.58;100811.56;10437311;28;20723;-71
2023/03/04 04:32:17;;;;;;;25.10;17.50;;;;;;;4.68;59.56;100779.47;10437983;28;20052;-72
2023/03/04 04:37:19;;;;;;;21.83;15.63;;;;;;;4.78;59.46;100779.91;10437502;28;20087;-71
2023/03/04 04:42:21;;;;;;;22.55;14.70;;;;;;;4.72;59.50;100790.75;10434137;28;20045;-72
2023/03/04 04:47:22;;;;;;;23.63;16.38;;;;;;;4.66;59.45;100760.25;10439973;28;21007;-73
2023/03/04 04:52:24;;;;;;;25.10;15.45;;;;;;;4.90;59.97;100794.28;10435373;28;20154;-71
2023/03/04 04:57:25;;;;;;;24.00;16.42;;;;;;;4.82;59.58;100776.22;10420560;28;20128;-72
2023/03/04 05:02:26;;;;;;;23.58;15.57;;;;;;;4.79;59.93;100755.25;10435971;28;20091;-72
2023/03/04 05:07:28;;;;;;;21.80;16.83;;;;;;;4.98;59.80;100786.00;10421732;28;20051;-72
2023/03/04 05:12:29;;;;;;;24.55;16.48;;;;;;;4.75;59.66;100740.50;10433172;28;20093;-72
2023/03/04 05:17:31;;;;;;;21.70;16.50;;;;;;;5.02;59.68;100777.88;10433948;28;20351;-75
2023/03/04 05:22:32;;;;;;;25.48;16.05;;;;;;;4.91;59.41;100759.09;10431819;28;20550;-73
2023/03/04 05:27:34;;;;;;;22.15;15.88;;;;;;;5.15;59.15;100786.06;10438951;28;20192;-73
2023/03/04 05:32:37;;;;;;;22.38;17.02;;;;;;;5.16;59.32;100785.09;10440404;28;20184;-72
2023/03/04 05:37:39;;;;;;;22.30;16.90;;;;;;;4.96;59.16;100757.91;10437652;28;20052;-72
2023/03/04 05:42:41;;;;;;;22.67;16.90;;;;;;;5.24;58.93;100785.59;10440907;28;20111;-73
2023/03/04 05:47:42;;;;;;;20.80;16.35;;;;;;;5.19;58.69;100776.19;10440658;28;20160;-72
2023/03/04 05:52:44;;;;;;;21.85;16.52;;;;;;;5.09;58.96;100762.59;10442289;28;20079;-74
2023/03/04 05:57:45;;;;;;;25.55;18.30;;;;;;;5.10;59.21;100780.13;10442279;28;20044;-74
2023/03/04 06:02:47;;;;;;;23.73;17.23;;;;;;;5.27;58.87;100798.63;10477426;28;20052;-74
2023/03/04 06:07:48;;;;;;;25.40;17.77;;;;;;;5.26;58.89;100798.72;10464027;28;20037;-75
2023/03/04 06:12:52;;;;;;;18.77;13.73;;;;;;;5.15;59.17;100788.69;10469049;28;20055;-73
2023/03/04 06:17:54;;;;;;;24.80;18.55;;;;;;;5.30;58.40;100803.75;10424812;28;20139;-72
2023/03/04 06:22:55;;;;;;;25.30;19.23;;;;;;;5.23;58.47;100775.94;10439475;28;20103;-74
2023/03/04 06:27:56;;;;;;;22.70;18.75;;;;;;;5.38;58.15;100815.72;10436224;28;20053;-73
2023/03/04 06:32:58;;;;;;;26.55;19.63;;;;;;;5.18;58.85;100824.59;10416615;28;20169;-72
2023/03/04 06:37:59;;;;;;;22.98;17.92;;;;;;;5.33;58.60;100834.44;10447194;28;20052;-74
2023/03/04 06:43:00;;;;;;;26.60;17.63;;;;;;;5.26;58.43;100831.22;10461174;28;20124;-72
2023/03/04 06:48:02;;;;;;;25.27;18.45;;;;;;;5.19;58.33;100826.31;10419626;28;20175;-69
2023/03/04 06:53:03;;;;;;;28.02;17.55;;;;;;;5.19;57.77;100832.44;10462405;28;20425;-72
2023/03/04 06:58:05;;;;;;;22.30;17.67;;;;;;;5.01;58.89;100838.63;10442855;28;20049;-72
2023/03/04 07:03:10;;;;;;;26.13;18.23;;;;;;;5.21;58.32;100833.25;10437299;28;20081;-70
2023/03/04 07:08:11;;;;;;;26.27;18.98;;;;;;;5.41;58.03;100841.97;10437043;28;20126;-72
2023/03/04 07:13:13;;;;;;;22.10;16.30;;;;;;;5.35;56.86;100829.09;10434031;28;20149;-75
2023/03/04 07:18:15;;;;;;;22.17;17.98;;;;;;;5.31;57.81;100841.56;10436644;28;20879;-72
2023/03/04 07:23:16;;;;;;;23.95;18.42;;;;;;;5.53;57.21;100851.91;10430894;28;20048;-71
2023/03/04 07:28:18;;;;;;;22.65;16.75;;;;;;;5.57;57.12;100861.41;10436213;28;20884;-69
2023/03/04 07:33:19;;;;;;;23.92;16.95;;;;;;;5.50;57.28;100846.78;10438022;28;20141;-71
2023/03/04 07:38:21;;;;;;;21.25;15.95;;;;;;;5.42;56.72;100846.31;10438609;28;20153;-72
2023/03/04 07:43:22;;;;;;;21.48;16.42;;;;;;;5.54;57.25;100874.75;10435778;28;20055;-70
2023/03/04 07:48:24;;;;;;;19.45;15.13;;;;;;;5.75;56.48;100878.13;10436758;28;20056;-70
2023/03/04 07:53:25;;;;;;;22.10;16.77;;;;;;;5.53;57.56;100865.13;10428405;28;20350;-70
2023/03/04 07:58:26;;;;;;;21.27;16.05;;;;;;;5.69;57.07;100867.00;10440641;28;20049;-72
2023/03/04 08:03:28;;;;;;;21.52;15.60;;;;;;;5.68;56.57;100852.94;10443785;28;20063;-72
2023/03/04 08:08:30;;;;;;;26.45;16.55;;;;;;;5.75;56.64;100854.34;10463495;28;20097;-72
2023/03/04 08:13:32;;;;;;;18.67;15.27;;;;;;;5.87;56.83;100868.72;10440278;28;21036;-73
2023/03/04 08:18:33;;;;;;;24.38;16.48;;;;;;;5.98;56.42;100882.25;10438403;28;20447;-72
2023/03/04 08:23:35;;;;;;;19.25;15.80;;;;;;;6.11;56.07;100881.63;10424645;28;20055;-72
2023/03/04 08:28:37;;;;;;;21.33;15.63;;;;;;;6.16;56.05;100876.97;10414867;28;20499;-70
2023/03/04 08:33:38;;;;;;;19.05;14.10;;;;;;;6.19;55.85;100888.22;10445847;28;20427;-70
2023/03/04 08:38:40;;;;;;;22.02;15.00;;;;;;;6.22;55.66;100887.22;10430073;28;20664;-69
2023/03/04 08:43:42;;;;;;;19.08;14.75;;;;;;;6.22;55.54;100894.31;10447585;28;20135;-70
2023/03/04 08:48:44;;;;;;;19.98;15.05;;;;;;;5.99;55.78;100897.19;10429767;28;20165;-68
2023/03/04 08:53:46;;;;;;;23.48;15.07;;;;;;;6.06;55.92;100894.22;10457648;28;20076;-70
2023/03/04 08:58:47;;;;;;;17.08;13.23;;;;;;;6.24;55.36;100884.50;10456103;28;20095;-70
2023/03/04 09:03:48;;;;;;;19.88;13.98;;;;;;;6.34;55.06;100891.00;10449341;28;20056;-71
2023/03/04 09:08:50;;;;;;;19.58;13.95;;;;;;;6.33;55.05;100881.34;10433942;28;20132;-71
2023/03/04 09:13:52;;;;;;;21.20;13.30;;;;;;;6.46;54.42;100881.56;10435110;28;20605;-68
2023/03/04 09:18:54;;;;;;;15.93;11.85;;;;;;;6.41;54.82;100887.13;10450457;28;20527;-69
2023/03/04 09:23:55;;;;;;;20.30;14.25;;;;;;;6.30;54.71;100857.72;10434856;28;20149;-70
2023/03/04 09:28:59;;;;;;;19.15;11.88;;;;;;;6.54;54.29;100882.00;10455834;28;20051;-71
2023/03/04 09:34:01;;;;;;;22.60;12.43;;;;;;;6.50;54.22;100885.75;10455022;28;20044;-69
2023/03/04 09:39:03;;;;;;;19.05;12.55;;;;;;;6.60;54.10;100884.31;10453518;28;20044;-71
2023/03/04 09:44:23;;;;;;;18.50;13.75;;;;;;;6.81;54.16;100886.75;10454654;28;20060;-68
2023/03/04 09:49:25;;;;;;;16.63;12.13;;;;;;;6.81;53.42;100881.47;10449452;28;20080;-72
2023/03/04 09:54:45;;;;;;;17.63;12.23;;;;;;;6.94;53.45;100884.28;10466002;28;20592;-72
2023/03/04 10:00:11;;;;;;;17.30;11.82;;;;;;;6.79;53.33;100872.75;10451659;28;20141;-70
2023/03/04 10:05:18;;;;;;;20.95;10.65;;;;;;;6.97;52.88;100868.25;10468813;28;20059;-69
2023/03/04 10:10:32;;;;;;;16.85;9.65;;;;;;;6.62;53.75;100885.13;10467436;28;20584;-69
2023/03/04 10:15:41;;;;;;;13.63;9.35;;;;;;;7.01;53.90;100867.09;10462848;28;20055;-72
2023/03/04 10:20:55;;;;;;;23.27;13.85;;;;;;;7.11;52.63;100856.88;10458482;28;20056;-70
2023/03/04 10:25:59;;;;;;;20.70;12.45;;;;;;;7.10;52.58;100877.22;10483597;28;20052;-76
2023/03/04 10:31:26;;;;;;;15.90;9.98;;;;;;;7.23;52.49;100864.13;10481072;28;20075;-69
2023/03/04 10:36:30;;;;;;;16.33;9.77;;;;;;;7.20;51.92;100856.34;10482562;28;20074;-73
2023/03/04 10:41:31;;;;;;;13.73;6.67;;;;;;;7.24;51.70;100855.25;10501742;28;20044;-74
2023/03/04 10:46:47;;;;;;;11.60;6.80;;;;;;;6.99;52.00;100850.47;10478819;28;20078;-70
2023/03/04 10:52:02;;;;;;;;;;;;;;;7.02;52.49;100850.28;10460962;28;20215;-71
2023/03/04 10:57:13;;;;;;;8.93;6.40;;;;;;;6.98;52.09;100807.28;10483342;28;19921;-71
2023/03/04 11:02:28;;;;;;;10.95;7.07;;;;;;;7.29;51.55;100831.97;10479522;28;20108;-74
2023/03/04 11:07:29;;;;;;;12.47;6.63;;;;;;;7.39;51.49;100832.31;10466086;28;20084;-74
2023/03/04 11:12:38;;;;;;;9.73;5.75;;;;;;;7.31;51.27;100808.94;10450701;28;20278;-74
2023/03/04 11:17:45;;;;;;;10.82;5.28;;;;;;;7.22;51.46;100835.91;10464618;28;20044;-71
2023/03/04 11:22:47;;;;;;;9.25;6.18;;;;;;;7.27;51.89;100807.41;10454551;28;20062;-70
2023/03/04 11:27:54;;;;;;;9.48;5.50;;;;;;;7.38;51.57;100809.41;10434859;28;20056;-72
2023/03/04 11:33:08;;;;;;;10.00;5.45;;;;;;;7.57;51.54;100825.09;10453382;28;20572;-71
2023/03/04 11:38:23;;;;;;;10.30;4.70;;;;;;;7.05;52.60;100829.78;10458378;28;20087;-72
2023/03/04 11:43:24;;;;;;;9.48;5.00;;;;;;;7.13;52.25;100820.56;10436237;28;20084;-72
2023/03/04 11:48:44;;;;;;;7.63;4.55;;;;;;;7.07;51.68;100768.81;10436009;28;22932;-72
2023/03/04 11:53:58;;;;;;;12.40;5.22;;;;;;;6.64;52.76;100787.97;10449040;28;20055;-71
2023/03/04 11:59:14;;;;;;;9.50;5.20;;;;;;;6.72;52.86;100796.38;10433700;28;20044;-73
2023/03/04 12:04:53;;;;;;;9.25;4.75;;;;;;;6.98;52.81;100801.09;10453660;28;20058;-72
2023/03/04 12:10:21;;;;;;;11.32;5.80;;;;;;;7.25;52.03;100798.66;10440269;28;20049;-73
2023/03/04 12:15:31;;;;;;;9.55;5.35;;;;;;;7.49;51.73;100787.59;10449866;28;20131;-73
2023/03/04 12:20:45;;;;;;;9.77;4.43;;;;;;;7.67;51.27;100781.22;10443068;28;20885;-74
2023/03/04 12:26:15;;;;;;;13.60;5.10;;;;;;;7.17;51.94;100763.84;10446081;28;20057;-70
2023/03/04 12:31:34;;;;;;;6.13;3.65;;;;;;;7.56;50.80;100771.22;10443169;28;20066;-72
2023/03/04 12:36:48;;;;;;;8.40;3.50;;;;;;;7.85;50.84;100762.47;10445598;28;20490;-72
2023/03/04 12:41:55;;;;;;;7.70;3.10;;;;;;;8.13;49.12;100754.53;10447883;28;20076;-74
2023/03/04 12:47:25;;;;;;;8.38;3.90;;;;;;;8.40;49.20;100735.16;10440200;28;20124;-68
2023/03/04 12:53:02;;;;;;;7.05;3.28;;;;;;;8.52;48.41;100725.59;10426901;28;20045;-71
2023/03/04 12:58:12;;;;;;;6.90;2.83;;;;;;;8.87;47.87;100722.44;10395812;28;20509;-71
2023/03/04 13:03:25;;;;;;;6.22;3.53;;;;;;;8.92;47.50;100714.22;10445130;28;20042;-71
2023/03/04 13:08:32;;;;;;;4.78;2.78;;;;;;;8.88;47.26;100707.41;10448572;28;20094;-72
2023/03/04 13:13:36;;;;;;;5.68;2.90;;;;;;;8.87;47.62;100705.69;10445366;28;20686;-73
2023/03/04 13:18:38;;;;;;;2.72;1.83;;;;;;;8.78;47.01;100686.78;10426198;28;20052;-72
2023/03/04 13:23:39;;;;;;;3.65;1.90;;;;;;;8.38;48.09;100646.88;10431013;28;20048;-72
2023/03/04 13:28:41;;;;;;;5.93;3.15;;;;;;;8.57;47.57;100678.41;10447918;28;20082;-71
2023/03/04 13:33:47;;;;;;;4.30;2.60;;;;;;;8.63;47.49;100677.13;10446799;28;20783;-71
2023/03/04 13:39:19;;;;;;;4.22;3.08;;;;;;;8.66;47.54;100672.50;10461360;28;20104;-70
2023/03/04 13:44:33;;;;;;;4.70;2.97;;;;;;;8.70;47.62;100667.84;10452172;28;20079;-71
2023/03/04 13:49:34;;;;;;;5.63;3.53;;;;;;;8.60;47.93;100675.56;10451930;28;20054;-73
2023/03/04 13:54:36;;;;;;;7.50;3.95;;;;;;;8.52;48.09;100653.13;10446339;28;20052;-73
2023/03/04 13:59:44;;;;;;;8.90;8.02;;;;;;;8.73;48.26;100662.31;10475489;28;20541;-73
2023/03/04 14:04:56;;;;;;;8.60;4.03;;;;;;;8.56;47.97;100641.38;10467148;28;20036;-73
2023/03/04 14:10:13;;;;;;;10.45;5.85;;;;;;;8.64;48.17;100652.31;10519377;28;20052;-70
2023/03/04 14:15:20;;;;;;;5.93;3.30;;;;;;;8.45;48.51;100632.31;10486544;28;20048;-74
2023/03/04 14:20:32;;;;;;;4.47;3.45;;;;;;;8.40;48.77;100623.75;10474722;28;20736;-73
2023/03/04 14:25:35;;;;;;;7.90;4.10;;;;;;;8.49;49.21;100625.00;10459145;28;20044;-72
2023/03/04 14:30:39;;;;;;;7.05;4.05;;;;;;;8.59;49.39;100639.34;10448192;28;20060;-71
2023/03/04 14:35:46;;;;;;;6.85;4.50;;;;;;;8.47;49.97;100633.03;10434001;28;20132;-70
2023/03/04 14:41:04;;;;;;;6.18;3.78;;;;;;;8.46;50.71;100611.94;10457600;28;20043;-70
2023/03/04 14:46:11;;;;;;;6.65;4.13;;;;;;;8.53;50.48;100610.56;10448982;28;20105;-70
2023/03/04 14:51:35;;;;;;;9.13;3.90;;;;;;;8.46;50.92;100611.94;10451363;28;20043;-70
2023/03/04 14:56:42;;;;;;;8.32;4.40;;;;;;;8.48;51.18;100608.22;10459339;28;20427;-70
2023/03/04 15:01:44;;;;;;;9.77;5.28;;;;;;;8.58;51.17;100610.25;10447839;28;20041;-70
2023/03/04 15:06:49;;;;;;;11.48;4.97;;;;;;;8.64;51.36;100607.19;10444351;28;20055;-70
2023/03/04 15:12:00;;;;;;;8.13;5.82;;;;;;;8.56;51.68;100601.56;10466069;28;20171;-70
2023/03/04 15:17:02;;;;;;;9.48;5.35;;;;;;;8.47;52.22;100600.38;10480011;28;20181;-69
2023/03/04 15:22:05;;;;;;;7.97;5.25;;;;;;;8.32;52.50;100591.59;10481800;28;20095;-70
2023/03/04 15:27:11;;;;;;;6.25;4.35;;;;;;;8.46;52.84;100599.50;10455955;28;20518;-70
2023/03/04 15:32:12;;;;;;;6.47;4.13;;;;;;;8.38;52.09;100577.91;10449046;28;20049;-69
2023/03/04 15:37:26;;;;;;;5.65;4.18;;;;;;;8.32;52.58;100575.66;10466683;28;20063;-71
2023/03/04 15:42:27;;;;;;;5.97;3.78;;;;;;;8.36;52.77;100585.13;10460290;28;20055;-72
2023/03/04 15:47:29;;;;;;;5.22;3.10;;;;;;;8.22;52.93;100569.28;10461019;28;20056;-71
2023/03/04 15:52:32;;;;;;;7.43;3.85;;;;;;;8.26;53.22;100578.72;10459638;28;20151;-70
2023/03/04 15:57:33;;;;;;;5.07;3.58;;;;;;;8.36;53.45;100589.56;10460120;28;20047;-73
2023/03/04 16:02:35;;;;;;;5.20;2.33;;;;;;;8.24;53.09;100583.25;10455558;28;20153;-69
2023/03/04 16:07:39;;;;;;;4.90;3.03;;;;;;;8.30;53.39;100590.81;10452541;28;20048;-73
2023/03/04 16:12:41;;;;;;;6.07;2.53;;;;;;;8.25;53.27;100559.28;10457852;28;20382;-71
2023/03/04 16:17:42;;;;;;;3.47;1.88;;;;;;;8.36;52.82;100573.66;10453532;28;20365;-71
2023/03/04 16:22:45;;;;;;;7.75;3.33;;;;;;;8.26;53.01;100549.56;10428917;28;21075;-71
2023/03/04 16:27:50;;;;;;;6.13;4.53;;;;;;;8.44;53.31;100579.34;10445561;28;20641;-71
2023/03/04 16:32:53;;;;;;;5.22;3.20;;;;;;;8.21;53.67;100539.25;10434514;28;20045;-69
2023/03/04 16:37:55;;;;;;;5.05;3.50;;;;;;;8.18;54.05;100549.19;10442970;28;20058;-70
2023/03/04 16:42:57;;;;;;;15.23;10.55;;;;;;;8.30;54.52;100569.59;10432290;28;20044;-71
2023/03/04 16:47:58;;;;;;;11.95;7.43;;;;;;;8.28;54.62;100566.22;10445393;28;20044;-70
2023/03/04 16:52:59;;;;;;;6.15;5.15;;;;;;;8.14;54.96;100569.78;10451076;28;20044;-70
2023/03/04 16:58:01;;;;;;;11.20;7.63;;;;;;;8.05;55.40;100571.22;10453650;28;20052;-71
2023/03/04 17:03:03;;;;;;;8.50;5.65;;;;;;;8.05;55.97;100565.91;10450769;28;20056;-69
2023/03/04 17:08:04;;;;;;;9.10;5.82;;;;;;;8.08;55.75;100560.41;10453191;28;20044;-69
2023/03/04 17:13:07;;;;;;;8.13;6.00;;;;;;;7.98;56.42;100559.31;10440137;28;21106;-69
2023/03/04 17:18:09;;;;;;;10.70;6.80;;;;;;;7.88;56.86;100574.09;10433425;28;20070;-70
2023/03/04 17:23:10;;;;;;;9.25;7.80;;;;;;;7.89;57.67;100571.34;10451415;28;20067;-71
2023/03/04 17:28:12;;;;;;;9.15;7.78;;;;;;;7.96;57.92;100582.41;10448412;28;20048;-70
2023/03/04 17:33:13;;;;;;;10.40;7.90;;;;;;;7.92;58.09;100587.06;10454344;28;20041;-71
2023/03/04 17:38:15;;;;;;;9.45;8.07;;;;;;;7.90;58.82;100593.41;10493099;28;20048;-70
2023/03/04 17:43:16;;;;;;;10.73;8.60;;;;;;;7.97;58.65;100589.41;10510000;28;20519;-69
2023/03/04 17:48:18;;;;;;;12.77;11.07;;;;;;;7.82;58.78;100569.19;10472112;28;20059;-69
2023/03/04 17:53:19;;;;;;;14.85;10.27;;;;;;;8.01;58.74;100595.38;10463804;28;20060;-69
2023/03/04 17:58:22;;;;;;;16.67;12.73;;;;;;;7.83;59.53;100586.81;10459418;28;20133;-69
2023/03/04 18:03:23;;;;;;;19.13;14.98;;;;;;;7.86;60.29;100586.59;10452118;28;20053;-69
2023/03/04 18:08:24;;;;;;;11.43;9.35;;;;;;;7.97;60.00;100584.09;10449822;28;20053;-70
2023/03/04 18:13:26;;;;;;;12.00;9.43;;;;;;;7.88;60.34;100574.09;10432235;28;20302;-69
2023/03/04 18:18:27;;;;;;;9.70;7.80;;;;;;;7.76;60.54;100555.41;10450713;28;20052;-70
2023/03/04 18:23:29;;;;;;;10.48;8.35;;;;;;;7.70;60.66;100558.44;10449771;28;20084;-70
2023/03/04 18:28:31;;;;;;;12.38;8.73;;;;;;;7.66;61.10;100564.88;10404919;28;20790;-69
2023/03/04 18:33:33;;;;;;;11.30;8.38;;;;;;;7.78;61.47;100569.38;10446048;28;20053;-71
2023/03/04 18:38:34;;;;;;;9.35;8.45;;;;;;;7.64;61.79;100577.38;10446177;28;20076;-68
2023/03/04 18:43:36;;;;;;;10.57;8.88;;;;;;;7.70;61.65;100574.34;10453744;28;20116;-70
2023/03/04 18:48:43;;;;;;;8.40;7.30;;;;;;;7.64;62.31;100572.09;10446567;28;20055;-70
2023/03/04 18:53:45;;;;;;;10.93;9.38;;;;;;;7.68;62.12;100568.25;10416172;28;20048;-70
2023/03/04 18:58:49;;;;;;;11.43;7.72;;;;;;;7.68;61.45;100555.03;10448650;28;20053;-69
2023/03/04 19:03:53;;;;;;;8.87;7.83;;;;;;;7.81;61.62;100567.47;10428204;28;20802;-69
2023/03/04 19:08:54;;;;;;;8.73;7.32;;;;;;;7.74;61.59;100551.97;10430890;28;20125;-70
2023/03/04 19:13:56;;;;;;;10.80;8.23;;;;;;;7.89;61.14;100583.75;10447883;28;20482;-70
2023/03/04 19:18:57;;;;;;;10.65;7.90;;;;;;;7.76;61.64;100563.34;10445365;28;20698;-70
2023/03/04 19:23:58;;;;;;;14.38;9.48;;;;;;;7.85;61.24;100582.25;10446258;28;20514;-70
2023/03/04 19:29:00;;;;;;;12.18;8.55;;;;;;;7.92;61.26;100581.75;10437897;28;20185;-71
2023/03/04 19:34:03;;;;;;;10.65;9.15;;;;;;;7.84;61.22;100568.16;10431681;28;20048;-70
2023/03/04 19:39:06;;;;;;;10.98;8.60;;;;;;;7.93;61.00;100593.22;10442843;28;20603;-69
2023/03/04 19:44:08;;;;;;;9.63;8.45;;;;;;;7.93;61.47;100583.47;10442824;28;20056;-70
2023/03/04 19:49:10;;;;;;;11.93;9.32;;;;;;;7.93;61.11;100583.47;10442751;28;20052;-70
2023/03/04 19:54:11;;;;;;;10.27;8.32;;;;;;;7.84;61.71;100573.44;10442240;28;20056;-71
2023/03/04 19:59:13;;;;;;;11.65;9.48;;;;;;;7.88;61.83;100571.44;10442777;28;20131;-70
2023/03/04 20:04:17;;;;;;;12.25;10.48;;;;;;;7.84;62.64;100577.91;10440531;28;20135;-69
2023/03/04 20:09:18;;;;;;;13.07;10.02;;;;;;;7.84;62.15;100570.81;10414047;28;20095;-71
2023/03/04 20:14:20;;;;;;;12.05;10.30;;;;;;;7.74;62.83;100546.66;10443235;28;20674;-70
2023/03/04 20:19:21;;;;;;;10.25;9.25;;;;;;;7.88;62.65;100564.38;10441578;28;20101;-70
2023/03/04 20:24:24;;;;;;;11.52;9.68;;;;;;;7.53;62.43;100532.16;10441331;28;20050;-70
2023/03/04 20:29:27;;;;;;;10.48;9.48;;;;;;;7.74;63.72;100572.34;10434983;28;20052;-70
2023/03/04 20:34:28;;;;;;;10.10;9.05;;;;;;;7.68;63.71;100572.72;10441013;28;20051;-69
2023/03/04 20:39:30;;;;;;;11.23;9.15;;;;;;;7.61;64.50;100570.47;10440119;28;20114;-69
2023/03/04 20:44:31;;;;;;;10.50;9.40;;;;;;;7.67;64.42;100568.38;10428489;28;20527;-69
2023/03/04 20:49:33;;;;;;;10.20;9.07;;;;;;;7.59;64.89;100566.19;10438544;28;20067;-70
2023/03/04 20:54:37;;;;;;;10.45;9.38;;;;;;;7.69;64.26;100580.56;10445767;28;20064;-69
2023/03/04 20:59:39;;;;;;;11.82;9.85;;;;;;;7.73;65.05;100576.78;10442141;28;20048;-70
2023/03/04 21:04:42;;;;;;;11.07;9.80;;;;;;;7.55;64.61;100546.13;10452748;28;20041;-72
2023/03/04 21:09:44;;;;;;;9.75;8.85;;;;;;;7.77;64.67;100582.75;10499033;28;20101;-70
2023/03/04 21:14:45;;;;;;;10.18;9.05;;;;;;;7.76;64.07;100555.41;10479086;28;20037;-70
2023/03/04 21:19:47;;;;;;;10.10;9.00;;;;;;;7.84;64.50;100567.31;10458448;28;20044;-71
2023/03/04 21:24:48;;;;;;;10.63;9.10;;;;;;;7.83;64.57;100562.94;10448854;28;20049;-71
2023/03/04 21:29:51;;;;;;;10.00;9.00;;;;;;;7.74;64.09;100541.38;10427441;28;20079;-72
2023/03/04 21:34:53;;;;;;;12.63;9.60;;;;;;;7.69;65.03;100543.47;10446517;28;20751;-70
2023/03/04 21:39:55;;;;;;;10.65;9.27;;;;;;;7.83;64.73;100555.84;10445382;28;20075;-73
2023/03/04 21:44:56;;;;;;;10.90;9.95;;;;;;;7.84;64.82;100554.06;10430358;28;20067;-71
2023/03/04 21:49:57;;;;;;;9.95;8.95;;;;;;;7.84;64.05;100554.06;10442576;28;20131;-70
2023/03/04 21:54:59;;;;;;;12.27;9.10;;;;;;;7.81;64.32;100547.16;10447327;28;20064;-69
2023/03/04 22:00:00;;;;;;;10.07;9.07;;;;;;;7.74;64.49;100546.66;10425140;28;20068;-72
2023/03/04 22:05:03;;;;;;;10.77;9.40;;;;;;;7.85;64.82;100553.97;10436574;28;20094;-71
2023/03/04 22:10:05;;;;;;;10.07;9.07;;;;;;;7.54;64.77;100499.44;10453913;28;20055;-73
2023/03/04 22:15:09;;;;;;;11.60;9.75;;;;;;;7.71;64.57;100530.97;10457647;28;20048;-72
2023/03/04 22:20:10;;;;;;;9.38;8.50;;;;;;;7.67;64.70;100518.88;10442028;28;20048;-72
2023/03/04 22:25:12;;;;;;;9.32;8.35;;;;;;;7.29;64.42;100461.25;10455205;28;20670;-74
2023/03/04 22:30:16;;;;;;;9.13;8.23;;;;;;;7.59;64.35;100526.47;10447108;28;20056;-69
2023/03/04 22:35:18;;;;;;;9.68;8.63;;;;;;;7.65;64.13;100514.63;10459151;28;20059;-73
2023/03/04 22:40:19;;;;;;;11.13;9.60;;;;;;;7.63;64.60;100522.69;10452241;28;20056;-72
2023/03/04 22:45:21;;;;;;;9.82;8.93;;;;;;;7.71;64.34;100535.44;10432360;28;20044;-70
2023/03/04 22:50:22;;;;;;;11.25;10.13;;;;;;;7.64;63.94;100513.78;10429801;28;20130;-70
2023/03/04 22:55:23;;;;;;;11.95;10.73;;;;;;;7.53;63.89;100489.78;10449870;28;20049;-70
2023/03/04 23:00:27;;;;;;;10.65;9.55;;;;;;;7.72;64.26;100524.72;10428326;28;20076;-71
2023/03/04 23:05:28;;;;;;;10.32;9.32;;;;;;;7.74;63.82;100525.47;10446027;28;20644;-71
2023/03/04 23:10:30;;;;;;;9.88;8.98;;;;;;;7.77;63.47;100529.75;10446473;28;20102;-70
2023/03/04 23:15:31;;;;;;;9.57;8.57;;;;;;;7.67;63.65;100541.88;10451964;28;20805;-73
2023/03/04 23:20:32;;;;;;;10.98;9.52;;;;;;;7.59;63.29;100518.50;10450592;28;20049;-71